Time;durP1;ratioP1;P1;durP2;ratioP2;P2;SDS_P1;SDS_P2;PMS_P1;PMS_P2;Temp;Humidity;BMP_temperature;BMP_pressure;BME280_temperature;BME280_humidity;BME280_pressure;Samples;Min_cycle;Max_cycle;Signal;HPM_P1;HPM_P2
2021/08/14 00:00:21;;;;;;;;;;;22.00;72.40;;;;;;5054638;28;1248;-75
2021/08/14 00:02:46;;;;;;;;;;;22.00;72.40;;;;;;5054473;28;1278;-75
2021/08/14 00:05:12;;;;;;;;;;;22.00;72.30;;;;;;5052637;28;1902;-74
2021/08/14 00:07:37;;;;;;;;;;;22.00;72.20;;;;;;5054415;28;1068;-74
2021/08/14 00:10:03;;;;;;;;;;;22.00;72.00;;;;;;5053455;28;1115;-76
2021/08/14 00:12:29;;;;;;;;;;;22.00;71.70;;;;;;5053142;28;1289;-76
2021/08/14 00:14:54;;;;;;;;;;;22.00;71.60;;;;;;5054051;28;1150;-76
2021/08/14 00:17:19;;;;;;;;;;;22.00;71.40;;;;;;5053227;28;1075;-76
2021/08/14 00:19:45;;;;;;;;;;;22.00;71.10;;;;;;5054173;28;1056;-76
2021/08/14 00:22:10;;;;;;;;;;;22.00;70.70;;;;;;5052894;28;1365;-76
2021/08/14 00:24:36;;;;;;;;;;;22.00;70.70;;;;;;5053626;28;1913;-76
2021/08/14 00:27:01;;;;;;;;;;;21.90;69.90;;;;;;5052671;28;1075;-76
2021/08/14 00:29:27;;;;;;;;;;;21.90;69.80;;;;;;5054011;28;1115;-76
2021/08/14 00:31:52;;;;;;;;;;;22.00;69.60;;;;;;5052572;28;1379;-76
2021/08/14 00:34:18;;;;;;;;;;;21.90;69.60;;;;;;5052385;28;1182;-76
2021/08/14 00:36:44;;;;;;;;;;;21.90;69.50;;;;;;5052723;28;1165;-75
2021/08/14 00:39:09;;;;;;;;;;;21.90;69.40;;;;;;5052322;28;1130;-76
2021/08/14 00:41:35;;;;;;;;;;;21.90;69.60;;;;;;5053767;28;1274;-74
2021/08/14 00:44:01;;;;;;;;;;;21.90;69.40;;;;;;5052079;28;1955;-75
2021/08/14 00:46:27;;;;;;;;;;;21.90;69.60;;;;;;5053766;28;1123;-75
2021/08/14 00:48:52;;;;;;;;;;;21.90;69.50;;;;;;5053597;28;1071;-75
2021/08/14 00:51:18;;;;;;;;;;;21.90;69.60;;;;;;5052346;28;1707;-75
2021/08/14 00:53:43;;;;;;;;;;;21.90;69.70;;;;;;5053380;28;1095;-75
2021/08/14 00:56:09;;;;;;;;;;;21.90;69.60;;;;;;5052029;28;1091;-75
2021/08/14 00:58:34;;;;;;;;;;;21.90;69.60;;;;;;5052435;28;1122;-75
2021/08/14 01:01:00;;;;;;;;;;;21.90;69.70;;;;;;5052324;28;1126;-75
2021/08/14 01:03:25;;;;;;;;;;;21.90;69.80;;;;;;5053209;28;1176;-75
2021/08/14 01:05:51;;;;;;;;;;;21.90;69.70;;;;;;5051800;28;1902;-74
2021/08/14 01:08:16;;;;;;;;;;;21.90;69.60;;;;;;5051805;28;1153;-75
2021/08/14 01:10:42;;;;;;;;;;;21.90;69.70;;;;;;5052217;28;1111;-75
2021/08/14 01:13:07;;;;;;;;;;;21.90;69.60;;;;;;5053019;28;1178;-75
2021/08/14 01:15:33;;;;;;;;;;;21.90;69.60;;;;;;5052412;28;1110;-75
2021/08/14 01:17:58;;;;;;;;;;;21.90;69.40;;;;;;5051914;28;1138;-75
2021/08/14 01:20:24;;;;;;;;;;;21.90;69.20;;;;;;5053358;28;1059;-75
2021/08/14 01:22:49;;;;;;;;;;;21.90;69.20;;;;;;5053542;28;1428;-74
2021/08/14 01:25:15;;;;;;;;;;;21.90;69.50;;;;;;5052486;28;1957;-74
2021/08/14 01:27:41;;;;;;;;;;;21.90;69.50;;;;;;5052731;28;1377;-74
2021/08/14 01:30:07;;;;;;;;;;;21.90;69.10;;;;;;5053040;28;1118;-74
2021/08/14 01:32:32;;;;;;;;;;;21.90;69.30;;;;;;5053763;28;1194;-74
2021/08/14 01:34:58;;;;;;;;;;;21.90;69.10;;;;;;5035739;28;1235;-74
2021/08/14 01:37:23;;;;;;;;;;;21.90;69.00;;;;;;5048957;28;1321;-75
2021/08/14 01:39:49;;;;;;;;;;;21.90;68.90;;;;;;5040812;28;1061;-74
2021/08/14 01:42:14;;;;;;;;;;;21.90;68.90;;;;;;5051680;28;1376;-75
2021/08/14 01:44:40;;;;;;;;;;;21.90;69.10;;;;;;5034942;28;1914;-75
2021/08/14 01:47:05;;;;;;;;;;;21.90;68.90;;;;;;5051387;28;1511;-75
2021/08/14 01:49:31;;;;;;;;;;;21.90;68.90;;;;;;5051475;28;1107;-75
2021/08/14 01:51:56;;;;;;;;;;;21.90;69.10;;;;;;5051370;28;1286;-75
2021/08/14 01:54:22;;;;;;;;;;;21.90;69.10;;;;;;5051118;28;1247;-75
2021/08/14 01:56:48;;;;;;;;;;;21.90;69.00;;;;;;5052796;28;1091;-75
2021/08/14 01:59:14;;;;;;;;;;;21.90;68.90;;;;;;5034729;28;1326;-75
2021/08/14 02:01:39;;;;;;;;;;;21.90;68.90;;;;;;5051389;28;1521;-75
2021/08/14 02:04:05;;;;;;;;;;;21.90;69.10;;;;;;5053090;28;1910;-75
2021/08/14 02:06:30;;;;;;;;;;;21.90;69.00;;;;;;5051970;28;1091;-75
2021/08/14 02:08:56;;;;;;;;;;;21.90;68.90;;;;;;5051662;28;1190;-75
2021/08/14 02:11:22;;;;;;;;;;;21.90;68.80;;;;;;5051732;28;1369;-75
2021/08/14 02:13:48;;;;;;;;;;;21.90;68.80;;;;;;5053015;28;1079;-75
2021/08/14 02:16:13;;;;;;;;;;;21.90;68.80;;;;;;5052074;28;1188;-75
2021/08/14 02:18:39;;;;;;;;;;;21.90;68.70;;;;;;5057199;28;1122;-74
2021/08/14 02:21:05;;;;;;;;;;;21.90;68.90;;;;;;5054190;28;1209;-75
2021/08/14 02:23:30;;;;;;;;;;;21.90;68.70;;;;;;5053607;28;1229;-75
2021/08/14 02:25:56;;;;;;;;;;;21.90;68.70;;;;;;5054818;28;1937;-75
2021/08/14 02:28:22;;;;;;;;;;;21.90;68.80;;;;;;5056806;28;1075;-75
2021/08/14 02:30:47;;;;;;;;;;;21.90;68.60;;;;;;5056940;28;1401;-75
2021/08/14 02:33:13;;;;;;;;;;;21.90;68.70;;;;;;5056582;28;1189;-75
2021/08/14 02:35:38;;;;;;;;;;;21.90;68.70;;;;;;5056172;28;1095;-75
2021/08/14 02:38:04;;;;;;;;;;;21.90;68.70;;;;;;5056282;28;1346;-75
2021/08/14 02:40:29;;;;;;;;;;;21.80;68.50;;;;;;5056456;28;1089;-75
2021/08/14 02:42:54;;;;;;;;;;;21.90;68.50;;;;;;5055044;28;1245;-75
2021/08/14 02:45:20;;;;;;;;;;;21.80;68.40;;;;;;5055818;28;1953;-75
2021/08/14 02:47:45;;;;;;;;;;;21.80;68.30;;;;;;5056324;28;1095;-74
2021/08/14 02:50:11;;;;;;;;;;;21.80;68.30;;;;;;5055937;28;1059;-75
2021/08/14 02:52:36;;;;;;;;;;;21.80;68.40;;;;;;5056420;28;1155;-75
2021/08/14 02:55:02;;;;;;;;;;;21.80;68.30;;;;;;5053511;28;2059;-75
2021/08/14 02:57:27;;;;;;;;;;;21.80;68.20;;;;;;5056286;28;1221;-75
2021/08/14 02:59:53;;;;;;;;;;;21.80;68.20;;;;;;5054847;28;1158;-75
2021/08/14 03:02:18;;;;;;;;;;;21.80;68.20;;;;;;5051153;28;1259;-75
2021/08/14 03:04:44;;;;;;;;;;;21.80;68.20;;;;;;5054264;28;1886;-75
2021/08/14 03:07:09;;;;;;;;;;;21.80;68.20;;;;;;5055998;28;1110;-75
2021/08/14 03:09:35;;;;;;;;;;;21.80;68.30;;;;;;5055616;28;1103;-75
2021/08/14 03:12:00;;;;;;;;;;;21.80;68.20;;;;;;5053246;28;1168;-75
2021/08/14 03:14:26;;;;;;;;;;;21.80;68.20;;;;;;5050448;28;1222;-75
2021/08/14 03:16:51;;;;;;;;;;;21.80;68.20;;;;;;5055834;28;1142;-75
2021/08/14 03:19:16;;;;;;;;;;;21.80;68.10;;;;;;5055509;28;1091;-74
2021/08/14 03:21:42;;;;;;;;;;;21.80;68.10;;;;;;5037935;28;1260;-75
2021/08/14 03:24:07;;;;;;;;;;;21.80;68.10;;;;;;5055196;28;1906;-75
2021/08/14 03:26:33;;;;;;;;;;;21.80;68.10;;;;;;5071192;28;1107;-75
2021/08/14 03:28:58;;;;;;;;;;;21.80;68.10;;;;;;5055723;28;1097;-75
2021/08/14 03:31:24;;;;;;;;;;;21.80;68.30;;;;;;5055535;28;1260;-75
2021/08/14 03:33:49;;;;;;;;;;;21.80;68.10;;;;;;5049415;28;1083;-75
2021/08/14 03:36:15;;;;;;;;;;;21.80;68.10;;;;;;5055025;28;1138;-75
2021/08/14 03:38:40;;;;;;;;;;;21.80;67.90;;;;;;5055012;28;1127;-75
2021/08/14 03:41:08;;;;;;;;;;;21.80;68.00;;;;;;5054499;28;1186;-75
2021/08/14 03:43:33;;;;;;;;;;;21.80;67.90;;;;;;5054228;28;1058;-75
2021/08/14 03:45:59;;;;;;;;;;;21.80;67.90;;;;;;5055001;28;1906;-75
2021/08/14 03:48:24;;;;;;;;;;;21.80;67.90;;;;;;5055715;28;1071;-75
2021/08/14 03:50:50;;;;;;;;;;;21.80;67.80;;;;;;5055870;28;1257;-75
2021/08/14 03:53:15;;;;;;;;;;;21.80;67.90;;;;;;5055150;28;1249;-75
2021/08/14 03:55:41;;;;;;;;;;;21.80;67.80;;;;;;5053759;28;1057;-75
2021/08/14 03:58:07;;;;;;;;;;;21.80;67.80;;;;;;5054231;28;1111;-75
2021/08/14 04:00:32;;;;;;;;;;;21.80;67.80;;;;;;5055119;28;1125;-74
2021/08/14 04:02:58;;;;;;;;;;;21.80;67.80;;;;;;5055185;28;1259;-75
2021/08/14 04:05:24;;;;;;;;;;;21.80;67.80;;;;;;5054620;28;1986;-75
2021/08/14 04:07:49;;;;;;;;;;;21.80;67.80;;;;;;5055254;28;1087;-75
2021/08/14 04:10:15;;;;;;;;;;;21.80;67.90;;;;;;5053783;28;1199;-75
2021/08/14 04:12:40;;;;;;;;;;;21.80;67.80;;;;;;5055175;28;1272;-75
2021/08/14 04:15:06;;;;;;;;;;;21.80;67.80;;;;;;5054495;28;1210;-75
2021/08/14 04:17:32;;;;;;;;;;;21.80;67.80;;;;;;5050313;28;1032;-75
2021/08/14 04:19:57;;;;;;;;;;;21.80;67.90;;;;;;5054665;28;1167;-75
2021/08/14 04:22:22;;;;;;;;;;;21.80;67.80;;;;;;5055107;28;1365;-75
2021/08/14 04:24:48;;;;;;;;;;;21.80;67.90;;;;;;5055168;28;1959;-75
2021/08/14 04:27:13;;;;;;;;;;;21.80;67.80;;;;;;5059534;28;1143;-75
2021/08/14 04:29:39;;;;;;;;;;;21.80;67.80;;;;;;5054306;28;1115;-74
2021/08/14 04:32:04;;;;;;;;;;;21.80;67.90;;;;;;5052856;28;1272;-74
2021/08/14 04:34:30;;;;;;;;;;;21.80;67.90;;;;;;5052546;28;1153;-74
2021/08/14 04:36:55;;;;;;;;;;;21.80;67.90;;;;;;5040323;28;1892;-74
2021/08/14 04:39:21;;;;;;;;;;;21.80;68.00;;;;;;5047726;28;1868;-73
2021/08/14 04:41:46;;;;;;;;;;;21.80;68.00;;;;;;5050334;28;2197;-72
2021/08/14 04:44:11;;;;;;;;;;;21.80;68.00;;;;;;5051742;28;1940;-72
2021/08/14 04:46:37;;;;;;;;;;;21.80;67.70;;;;;;5052845;28;1035;-74
2021/08/14 04:49:02;;;;;;;;;;;21.80;68.00;;;;;;5052082;28;1202;-72
2021/08/14 04:51:28;;;;;;;;;;;21.80;67.90;;;;;;5052461;28;1203;-72
2021/08/14 04:53:53;;;;;;;;;;;21.80;67.80;;;;;;5052546;28;1111;-73
2021/08/14 04:56:19;;;;;;;;;;;21.80;68.00;;;;;;5051434;28;1055;-73
2021/08/14 04:58:44;;;;;;;;;;;21.70;68.00;;;;;;5052694;28;1099;-73
2021/08/14 05:01:09;;;;;;;;;;;21.70;68.20;;;;;;5052782;28;1229;-73
2021/08/14 05:03:35;;;;;;;;;;;21.70;68.00;;;;;;5052563;28;1146;-73
2021/08/14 05:06:00;;;;;;;;;;;21.70;68.10;;;;;;5051352;28;1950;-74
2021/08/14 05:08:26;;;;;;;;;;;21.70;68.10;;;;;;5053083;28;1111;-73
2021/08/14 05:10:51;;;;;;;;;;;21.70;67.80;;;;;;5053683;28;1068;-73
2021/08/14 05:13:17;;;;;;;;;;;21.70;67.60;;;;;;5053155;28;1329;-73
2021/08/14 05:15:42;;;;;;;;;;;21.70;67.10;;;;;;5053038;28;1080;-74
2021/08/14 05:18:08;;;;;;;;;;;21.70;67.10;;;;;;5035282;28;1270;-74
2021/08/14 05:20:33;;;;;;;;;;;21.70;67.50;;;;;;5052317;28;1119;-74
2021/08/14 05:22:59;;;;;;;;;;;21.70;66.90;;;;;;5067988;28;1251;-73
2021/08/14 05:25:26;;;;;;;;;;;21.70;67.00;;;;;;5051690;28;1975;-74
2021/08/14 05:27:51;;;;;;;;;;;21.70;66.90;;;;;;5052573;28;1098;-74
2021/08/14 05:30:17;;;;;;;;;;;21.70;69.70;;;;;;5051929;28;1063;-73
2021/08/14 05:32:42;;;;;;;;;;;21.70;70.30;;;;;;5051666;28;1291;-74
2021/08/14 05:35:08;;;;;;;;;;;21.70;70.50;;;;;;5052181;28;1115;-70
2021/08/14 05:37:33;;;;;;;;;;;21.70;70.50;;;;;;5051962;28;1096;-72
2021/08/14 05:39:59;;;;;;;;;;;21.70;70.20;;;;;;5050649;28;1277;-72
2021/08/14 05:42:24;;;;;;;;;;;21.70;70.20;;;;;;5046760;28;1608;-72
2021/08/14 05:44:49;;;;;;;;;;;21.70;70.40;;;;;;5050407;28;1973;-72
2021/08/14 05:47:15;;;;;;;;;;;21.70;70.70;;;;;;5051240;28;1111;-72
2021/08/14 05:49:40;;;;;;;;;;;21.70;70.60;;;;;;5050012;28;1252;-72
2021/08/14 05:52:06;;;;;;;;;;;21.70;70.80;;;;;;5048709;28;1271;-71
2021/08/14 05:54:32;;;;;;;;;;;21.70;70.80;;;;;;5051646;28;1028;-71
2021/08/14 05:56:57;;;;;;;;;;;21.70;70.60;;;;;;5051580;28;1173;-71
2021/08/14 05:59:23;;;;;;;;;;;21.70;70.80;;;;;;5050640;28;1079;-71
2021/08/14 06:01:48;;;;;;;;;;;21.70;70.70;;;;;;5048959;28;1263;-73
2021/08/14 06:04:14;;;;;;;;;;;21.80;70.70;;;;;;5056496;28;1955;-70
2021/08/14 06:06:45;;;;;;;;;;;21.70;70.30;;;;;;5071047;28;1402;-70
2021/08/14 06:09:11;;;;;;;;;;;21.70;70.70;;;;;;5054740;28;1190;-71
2021/08/14 06:11:36;;;;;;;;;;;21.70;70.30;;;;;;5055540;28;1354;-71
2021/08/14 06:14:02;;;;;;;;;;;21.70;70.60;;;;;;5055534;28;1055;-71
2021/08/14 06:16:27;;;;;;;;;;;21.70;70.80;;;;;;5055291;28;1169;-71
2021/08/14 06:18:53;;;;;;;;;;;21.70;70.70;;;;;;5055941;28;1047;-72
2021/08/14 06:21:18;;;;;;;;;;;21.80;70.70;;;;;;5054416;28;1259;-71
2021/08/14 06:23:43;;;;;;;;;;;21.80;70.70;;;;;;5055462;28;1055;-71
2021/08/14 06:26:09;;;;;;;;;;;21.70;70.70;;;;;;5053884;28;1910;-71
2021/08/14 06:28:34;;;;;;;;;;;21.70;70.50;;;;;;5054379;28;1083;-71
2021/08/14 06:31:00;;;;;;;;;;;21.80;70.80;;;;;;5070602;28;1146;-71
2021/08/14 06:33:25;;;;;;;;;;;21.70;70.70;;;;;;5055362;28;1243;-71
2021/08/14 06:35:50;;;;;;;;;;;21.80;70.80;;;;;;5055138;28;1123;-72
2021/08/14 06:38:16;;;;;;;;;;;21.70;70.90;;;;;;5055215;28;1236;-71
2021/08/14 06:40:41;;;;;;;;;;;21.70;70.90;;;;;;5055314;28;1095;-76
2021/08/14 06:43:07;;;;;;;;;;;21.80;70.70;;;;;;5044364;28;9094;-76
2021/08/14 06:45:32;;;;;;;;;;;21.80;70.80;;;;;;5023005;28;1912;-76
2021/08/14 06:47:58;;;;;;;;;;;21.70;70.80;;;;;;5036831;28;1230;-75
2021/08/14 06:50:23;;;;;;;;;;;21.80;70.90;;;;;;5018520;28;1159;-74
2021/08/14 06:52:49;;;;;;;;;;;21.80;70.90;;;;;;5019963;28;1432;-77
2021/08/14 06:55:14;;;;;;;;;;;21.80;70.50;;;;;;5036455;28;1744;-77
2021/08/14 06:57:40;;;;;;;;;;;21.80;70.50;;;;;;5018167;28;1795;-75
2021/08/14 07:00:05;;;;;;;;;;;21.80;70.80;;;;;;5033796;28;2015;-75
2021/08/14 07:02:31;;;;;;;;;;;21.80;70.30;;;;;;5017771;28;1958;-76
2021/08/14 07:04:56;;;;;;;;;;;21.70;69.90;;;;;;5017974;28;1894;-76
2021/08/14 07:07:22;;;;;;;;;;;21.70;70.10;;;;;;5031759;28;2206;-76
2021/08/14 07:09:51;;;;;;;;;;;21.70;70.30;;;;;;5033131;28;1822;-76
2021/08/14 07:12:17;;;;;;;;;;;21.70;70.50;;;;;;5033627;28;1533;-76
2021/08/14 07:14:42;;;;;;;;;;;21.80;70.40;;;;;;5035391;28;1333;-76
2021/08/14 07:17:08;;;;;;;;;;;21.70;70.00;;;;;;5034729;28;1456;-76
2021/08/14 07:19:33;;;;;;;;;;;21.80;70.20;;;;;;5036000;28;1326;-76
2021/08/14 07:21:58;;;;;;;;;;;21.80;70.10;;;;;;5035653;28;1427;-76
2021/08/14 07:24:24;;;;;;;;;;;21.80;69.70;;;;;;5055703;23;2823;-65
2021/08/14 07:26:49;;;;;;;;;;;21.80;70.30;;;;;;5047047;28;1137;-66
2021/08/14 07:29:15;;;;;;;;;;;21.80;70.20;;;;;;5047122;28;997;-65
2021/08/14 07:31:40;;;;;;;;;;;21.70;69.90;;;;;;5047483;28;1052;-65
2021/08/14 07:34:06;;;;;;;;;;;21.70;69.70;;;;;;5049394;28;1342;-65
2021/08/14 07:36:31;;;;;;;;;;;21.70;69.40;;;;;;5055015;28;1068;-65
2021/08/14 07:38:57;;;;;;;;;;;21.70;70.20;;;;;;5055014;28;1167;-66
2021/08/14 07:41:22;;;;;;;;;;;21.70;69.10;;;;;;5054875;28;1123;-65
2021/08/14 07:43:47;;;;;;;;;;;21.80;69.50;;;;;;5053194;28;1271;-65
2021/08/14 07:46:13;;;;;;;;;;;21.80;69.80;;;;;;5054236;28;1973;-65
2021/08/14 07:48:38;;;;;;;;;;;21.80;69.80;;;;;;5054930;28;1076;-65
2021/08/14 07:51:04;;;;;;;;;;;21.80;69.90;;;;;;5054802;28;1029;-66
2021/08/14 07:53:29;;;;;;;;;;;21.80;69.70;;;;;;5054709;28;1200;-65
2021/08/14 07:55:55;;;;;;;;;;;21.80;69.40;;;;;;5054381;28;1139;-66
2021/08/14 07:58:20;;;;;;;;;;;21.80;69.00;;;;;;5054758;28;1092;-65
2021/08/14 08:00:45;;;;;;;;;;;21.80;68.70;;;;;;5054333;28;1096;-66
2021/08/14 08:03:11;;;;;;;;;;;21.80;68.30;;;;;;5046258;28;1276;-65
2021/08/14 08:05:37;;;;;;;;;;;21.80;68.00;;;;;;5054116;28;1965;-66
2021/08/14 08:08:02;;;;;;;;;;;21.80;67.80;;;;;;5037074;28;1073;-65
2021/08/14 08:10:28;;;;;;;;;;;21.80;67.00;;;;;;5036798;28;1148;-65
2021/08/14 08:12:53;;;;;;;;;;;21.80;67.70;;;;;;5054450;28;1267;-65
2021/08/14 08:15:19;;;;;;;;;;;21.80;68.30;;;;;;5053792;28;1112;-66
2021/08/14 08:17:44;;;;;;;;;;;21.80;68.30;;;;;;5036583;28;1219;-65
2021/08/14 08:20:10;;;;;;;;;;;21.80;67.90;;;;;;5054279;28;1061;-64
2021/08/14 08:22:36;;;;;;;;;;;21.90;67.80;;;;;;5054035;28;1237;-65
2021/08/14 08:25:01;;;;;;;;;;;21.90;68.40;;;;;;5035801;28;1887;-65
2021/08/14 08:27:27;;;;;;;;;;;21.90;68.60;;;;;;5054170;28;1135;-65
2021/08/14 08:29:52;;;;;;;;;;;21.90;68.70;;;;;;5053954;28;1068;-65
2021/08/14 08:32:18;;;;;;;;;;;21.90;68.10;;;;;;5053896;28;1087;-65
2021/08/14 08:34:44;;;;;;;;;;;21.90;69.10;;;;;;5036023;28;1285;-66
2021/08/14 08:37:09;;;;;;;;;;;21.90;69.00;;;;;;5035883;28;1162;-66
2021/08/14 08:39:37;;;;;;;;;;;21.90;68.90;;;;;;5053978;28;1204;-66
2021/08/14 08:42:02;;;;;;;;;;;21.90;68.20;;;;;;5036194;28;1073;-67
2021/08/14 08:44:28;;;;;;;;;;;21.90;68.70;;;;;;5035188;28;1894;-64
2021/08/14 08:46:53;;;;;;;;;;;21.90;69.80;;;;;;5053401;28;1123;-66
2021/08/14 08:49:19;;;;;;;;;;;21.90;69.40;;;;;;5053610;28;1108;-66
2021/08/14 08:51:44;;;;;;;;;;;21.90;69.70;;;;;;5053380;28;1077;-66
2021/08/14 08:54:11;;;;;;;;;;;21.90;70.10;;;;;;5046585;28;1880;-66
2021/08/14 08:56:36;;;;;;;;;;;21.90;70.00;;;;;;5031641;28;1334;-65
2021/08/14 08:59:01;;;;;;;;;;;21.90;70.40;;;;;;5044941;28;1183;-65
2021/08/14 09:01:27;;;;;;;;;;;21.90;70.50;;;;;;5051606;28;1928;-65
2021/08/14 09:03:52;;;;;;;;;;;21.90;70.60;;;;;;5050096;28;1282;-66
2021/08/14 09:06:19;;;;;;;;;;;21.90;70.20;;;;;;5049881;28;1909;-65
2021/08/14 09:09:03;;;;;;;;;;;21.90;70.50;;;;;;5035680;28;1178;-66
2021/08/14 09:11:29;;;;;;;;;;;21.90;70.80;;;;;;5053093;28;1048;-65
2021/08/14 09:14:01;;;;;;;;;;;21.90;70.90;;;;;;5026888;28;1685;-65
2021/08/14 09:16:26;;;;;;;;;;;21.90;71.90;;;;;;5053172;28;1124;-65
2021/08/14 09:18:55;;;;;;;;;;;21.90;70.60;;;;;;5053287;28;1068;-66
2021/08/14 09:21:29;;;;;;;;;;;22.00;69.90;;;;;;5053188;28;1097;-65
2021/08/14 09:23:55;;;;;;;;;;;21.90;70.30;;;;;;5052635;28;1364;-65
2021/08/14 09:26:20;;;;;;;;;;;22.00;70.50;;;;;;5051617;28;1910;-66
2021/08/14 09:28:45;;;;;;;;;;;22.00;70.50;;;;;;5053262;28;1076;-66
2021/08/14 09:31:11;;;;;;;;;;;22.00;70.30;;;;;;5035074;28;1175;-65
2021/08/14 09:33:37;;;;;;;;;;;22.00;69.30;;;;;;5035091;28;1287;-67
2021/08/14 09:36:06;;;;;;;;;;;22.00;69.60;;;;;;5034621;28;1077;-66
2021/08/14 09:38:41;;;;;;;;;;;22.00;69.70;;;;;;5052667;28;1190;-65
2021/08/14 09:41:19;;;;;;;;;;;22.10;69.10;;;;;;5052742;28;1270;-66
2021/08/14 09:43:45;;;;;;;;;;;22.10;69.90;;;;;;5033204;28;1308;-66
2021/08/14 09:46:10;;;;;;;;;;;22.10;69.70;;;;;;5034780;28;1952;-65
2021/08/14 09:48:36;;;;;;;;;;;22.10;69.10;;;;;;5034938;28;1546;-66
2021/08/14 09:51:01;;;;;;;;;;;22.10;68.40;;;;;;5052515;28;1060;-66
2021/08/14 09:53:28;;;;;;;;;;;22.20;68.20;;;;;;5052633;28;1274;-66
2021/08/14 09:56:09;;;;;;;;;;;22.10;68.30;;;;;;5052390;28;1080;-66
2021/08/14 09:58:35;;;;;;;;;;;22.20;68.30;;;;;;5034830;28;1171;-66
2021/08/14 10:01:01;;;;;;;;;;;22.20;70.90;;;;;;5034896;28;1077;-66
2021/08/14 10:03:27;;;;;;;;;;;22.20;70.10;;;;;;5034693;28;1279;-66
2021/08/14 10:05:54;;;;;;;;;;;22.10;70.00;;;;;;5052123;28;1975;-66
2021/08/14 10:08:20;;;;;;;;;;;22.20;70.10;;;;;;5026836;28;1180;-65
2021/08/14 10:10:45;;;;;;;;;;;22.10;69.80;;;;;;5034633;28;1095;-65
2021/08/14 10:13:10;;;;;;;;;;;22.10;69.20;;;;;;5034600;28;1282;-65
2021/08/14 10:15:36;;;;;;;;;;;22.10;68.80;;;;;;5033370;28;2191;-66
2021/08/14 10:18:02;;;;;;;;;;;22.10;68.40;;;;;;5049117;28;1296;-67
2021/08/14 10:20:27;;;;;;;;;;;22.10;68.10;;;;;;5047531;28;1076;-66
2021/08/14 10:23:11;;;;;;;;;;;22.10;67.70;;;;;;5052334;28;1367;-66
2021/08/14 10:25:37;;;;;;;;;;;22.10;67.50;;;;;;5051960;28;1955;-67
2021/08/14 10:28:04;;;;;;;;;;;22.10;67.20;;;;;;5052929;28;1219;-66
2021/08/14 10:30:43;;;;;;;;;;;22.10;67.90;;;;;;5034451;28;1112;-67
2021/08/14 10:33:28;;;;;;;;;;;22.10;68.70;;;;;;5022649;28;1350;-67
2021/08/14 10:35:54;;;;;;;;;;;22.10;68.60;;;;;;5051671;28;1400;-66
2021/08/14 10:38:39;;;;;;;;;;;22.10;69.20;;;;;;5052380;28;1060;-66
2021/08/14 10:41:04;;;;;;;;;;;22.10;68.90;;;;;;5051953;28;1116;-67
2021/08/14 10:43:48;;;;;;;;;;;22.10;68.40;;;;;;5051145;28;1339;-66
2021/08/14 10:46:32;;;;;;;;;;;22.10;69.00;;;;;;5040819;28;1906;-66
2021/08/14 10:48:58;;;;;;;;;;;22.20;68.70;;;;;;5056034;28;1137;-66
2021/08/14 10:51:43;;;;;;;;;;;22.10;69.50;;;;;;5037899;28;1116;-65
2021/08/14 10:54:09;;;;;;;;;;;22.10;69.80;;;;;;5055434;28;1188;-66
2021/08/14 10:56:53;;;;;;;;;;;22.10;69.30;;;;;;5055828;28;1151;-66
2021/08/14 10:59:40;;;;;;;;;;;22.20;70.40;;;;;;5038183;28;1136;-66
2021/08/14 11:02:08;;;;;;;;;;;22.10;70.00;;;;;;5055657;28;1201;-67
2021/08/14 11:04:40;;;;;;;;;;;22.20;68.80;;;;;;5037484;28;1973;-67
2021/08/14 11:09:43;;;;;;;;;;;22.20;69.30;;;;;;5055904;28;1012;-66
2021/08/14 11:12:09;;;;;;;;;;;22.20;69.00;;;;;;5055529;28;1107;-66
2021/08/14 11:14:37;;;;;;;;;;;22.20;68.50;;;;;;5055172;28;1219;-66
2021/08/14 11:17:03;;;;;;;;;;;22.20;68.40;;;;;;5055550;28;1160;-66
2021/08/14 11:19:41;;;;;;;;;;;22.20;68.90;;;;;;5055545;28;1092;-67
2021/08/14 11:22:25;;;;;;;;;;;22.20;68.70;;;;;;5037587;28;1166;-67
2021/08/14 11:24:51;;;;;;;;;;;22.30;68.40;;;;;;5054710;28;1898;-67
2021/08/14 11:27:33;;;;;;;;;;;22.20;68.80;;;;;;5055405;28;1064;-68
2021/08/14 11:29:59;;;;;;;;;;;22.30;67.60;;;;;;5055343;28;1128;-67
2021/08/14 11:32:24;;;;;;;;;;;22.30;69.50;;;;;;5053575;28;1095;-67
2021/08/14 11:34:50;;;;;;;;;;;22.30;69.90;;;;;;5055221;28;1224;-66
2021/08/14 11:37:16;;;;;;;;;;;22.30;68.00;;;;;;5037096;28;1077;-67
2021/08/14 11:39:41;;;;;;;;;;;22.30;67.50;;;;;;5055166;28;1131;-65
2021/08/14 11:42:09;;;;;;;;;;;22.30;68.40;;;;;;5054821;28;1084;-67
2021/08/14 11:44:35;;;;;;;;;;;22.30;68.20;;;;;;5053493;28;1910;-67
2021/08/14 11:47:04;;;;;;;;;;;22.30;66.90;;;;;;5037611;28;1060;-66
2021/08/14 11:49:29;;;;;;;;;;;22.30;67.30;;;;;;5055314;28;1068;-67
2021/08/14 11:52:04;;;;;;;;;;;22.40;67.60;;;;;;5054855;28;1060;-66
2021/08/14 11:54:30;;;;;;;;;;;22.40;66.60;;;;;;5037241;28;1276;-67
2021/08/14 11:57:06;;;;;;;;;;;22.40;66.90;;;;;;5055040;28;1155;-67
2021/08/14 11:59:33;;;;;;;;;;;22.40;68.40;;;;;;5054630;28;1095;-67
2021/08/14 12:01:59;;;;;;;;;;;22.40;68.60;;;;;;5054794;28;1040;-68
2021/08/14 12:04:24;;;;;;;;;;;22.30;68.80;;;;;;5036517;28;1223;-67
2021/08/14 12:06:54;;;;;;;;;;;22.40;68.30;;;;;;5036647;28;1898;-67
2021/08/14 12:09:19;;;;;;;;;;;22.40;67.60;;;;;;5037005;28;1077;-66
2021/08/14 12:11:44;;;;;;;;;;;22.30;68.50;;;;;;5054371;28;1104;-67
2021/08/14 12:14:20;;;;;;;;;;;22.40;68.60;;;;;;5054304;28;1184;-67
2021/08/14 12:16:46;;;;;;;;;;;22.40;68.70;;;;;;5036447;28;1057;-66
2021/08/14 12:19:13;;;;;;;;;;;22.40;66.20;;;;;;5054538;28;1300;-66
2021/08/14 12:21:38;;;;;;;;;;;22.40;66.40;;;;;;5054376;28;1032;-67
2021/08/14 12:24:04;;;;;;;;;;;22.40;66.60;;;;;;5053775;28;1350;-66
2021/08/14 12:26:29;;;;;;;;;;;22.50;67.20;;;;;;5036517;28;1898;-66
2021/08/14 12:29:21;;;;;;;;;;;22.40;69.90;;;;;;5054633;28;1044;-67
2021/08/14 12:31:47;;;;;;;;;;;22.40;68.40;;;;;;5050461;28;1171;-66
2021/08/14 12:34:28;;;;;;;;;;;22.50;67.50;;;;;;5054025;28;1374;-66
2021/08/14 12:37:00;;;;;;;;;;;22.40;68.10;;;;;;5036134;28;1148;-65
2021/08/14 12:39:44;;;;;;;;;;;22.40;68.80;;;;;;5054243;28;1238;-67
2021/08/14 12:42:15;;;;;;;;;;;22.50;68.30;;;;;;5053752;28;1112;-67
2021/08/14 12:44:41;;;;;;;;;;;22.40;66.50;;;;;;5052260;28;1898;-66
2021/08/14 12:47:07;;;;;;;;;;;22.40;66.00;;;;;;5053811;28;1156;-66
2021/08/14 12:49:32;;;;;;;;;;;22.40;65.50;;;;;;5053768;28;1139;-66
2021/08/14 12:51:59;;;;;;;;;;;22.40;66.00;;;;;;5053559;28;1139;-67
2021/08/14 12:54:25;;;;;;;;;;;22.40;65.70;;;;;;5053245;28;1199;-65
2021/08/14 12:56:50;;;;;;;;;;;22.40;65.40;;;;;;5035608;28;1210;-67
2021/08/14 12:59:15;;;;;;;;;;;22.40;65.00;;;;;;5035944;28;1088;-66
2021/08/14 13:02:10;;;;;;;;;;;22.50;64.60;;;;;;5035731;28;1231;-65
2021/08/14 13:04:36;;;;;;;;;;;22.50;64.60;;;;;;5036017;28;1890;-67
2021/08/14 13:07:02;;;;;;;;;;;22.40;64.70;;;;;;5035789;28;1123;-66
2021/08/14 13:09:27;;;;;;;;;;;22.40;64.90;;;;;;5035752;28;1048;-66
2021/08/14 13:11:53;;;;;;;;;;;22.40;65.20;;;;;;5052438;28;1144;-66
2021/08/14 13:14:18;;;;;;;;;;;22.50;64.60;;;;;;5035305;28;1287;-66
2021/08/14 13:16:44;;;;;;;;;;;22.40;65.10;;;;;;5053419;28;1144;-66
2021/08/14 13:19:10;;;;;;;;;;;22.40;64.70;;;;;;5035641;28;1128;-64
2021/08/14 13:21:36;;;;;;;;;;;22.40;63.90;;;;;;5047305;28;1398;-65
2021/08/14 13:24:02;;;;;;;;;;;22.40;63.70;;;;;;5052951;28;1303;-64
2021/08/14 13:26:28;;;;;;;;;;;22.40;63.70;;;;;;5052670;28;1905;-64
2021/08/14 13:28:54;;;;;;;;;;;22.50;64.00;;;;;;5050798;28;1694;-64
2021/08/14 13:31:19;;;;;;;;;;;22.40;64.00;;;;;;5051896;28;1023;-63
2021/08/14 13:33:44;;;;;;;;;;;22.40;62.50;;;;;;5052804;28;1280;-64
2021/08/14 13:36:10;;;;;;;;;;;22.50;60.60;;;;;;5052214;28;977;-64
2021/08/14 13:38:36;;;;;;;;;;;22.50;61.10;;;;;;5052190;28;1162;-64
2021/08/14 13:41:01;;;;;;;;;;;22.50;59.30;;;;;;5051929;28;1120;-63
2021/08/14 13:43:26;;;;;;;;;;;22.50;60.10;;;;;;5052554;28;1224;-63
2021/08/14 13:45:52;;;;;;;;;;;22.50;60.70;;;;;;5052379;28;1967;-63
2021/08/14 13:48:17;;;;;;;;;;;22.50;61.90;;;;;;5052341;28;907;-63
2021/08/14 13:50:43;;;;;;;;;;;22.50;61.60;;;;;;5051936;28;1103;-65
2021/08/14 13:53:08;;;;;;;;;;;22.50;61.00;;;;;;5048388;28;1344;-64
2021/08/14 13:55:34;;;;;;;;;;;22.50;62.20;;;;;;5034487;28;1191;-66
2021/08/14 13:58:00;;;;;;;;;;;22.50;61.40;;;;;;5052580;28;1103;-66
2021/08/14 14:00:26;;;;;;;;;;;22.50;60.10;;;;;;5052529;28;1108;-66
2021/08/14 14:02:51;;;;;;;;;;;22.60;60.80;;;;;;5052526;28;1340;-65
2021/08/14 14:05:16;;;;;;;;;;;22.50;61.80;;;;;;5052274;28;1960;-66
2021/08/14 14:07:42;;;;;;;;;;;22.50;62.70;;;;;;5052441;28;1112;-65
2021/08/14 14:10:08;;;;;;;;;;;22.50;62.50;;;;;;5052463;28;1124;-66
2021/08/14 14:12:33;;;;;;;;;;;22.50;62.40;;;;;;5052194;28;1220;-66
2021/08/14 14:14:59;;;;;;;;;;;22.50;62.50;;;;;;5052034;28;1199;-64
2021/08/14 14:17:25;;;;;;;;;;;22.50;61.30;;;;;;5052543;28;1139;-63
2021/08/14 14:19:50;;;;;;;;;;;22.50;59.40;;;;;;5052003;28;1081;-64
2021/08/14 14:22:15;;;;;;;;;;;22.60;58.90;;;;;;5053791;28;1072;-65
2021/08/14 14:24:41;;;;;;;;;;;22.60;60.10;;;;;;5038117;28;1969;-64
2021/08/14 14:27:06;;;;;;;;;;;22.60;59.60;;;;;;5055651;28;1036;-66
2021/08/14 14:29:32;;;;;;;;;;;22.60;59.40;;;;;;5056083;28;1175;-64